sensor_id;sensor_type;location;lat;lon;timestamp;P1;durP1;ratioP1;P2;durP2;ratioP2
37485;SDS011;23341;50.296;18.960;2023-06-14T00:04:50;16.13;;;11.32;;
37485;SDS011;23341;50.296;18.960;2023-06-14T00:09:55;14.88;;;11.30;;
37485;SDS011;23341;50.296;18.960;2023-06-14T00:14:59;12.90;;;10.75;;
37485;SDS011;23341;50.296;18.960;2023-06-14T00:27:02;18.08;;;11.88;;
37485;SDS011;23341;50.296;18.960;2023-06-14T00:32:08;19.00;;;12.02;;
37485;SDS011;23341;50.296;18.960;2023-06-14T00:42:58;18.63;;;12.48;;
37485;SDS011;23341;50.296;18.960;2023-06-14T00:48:03;18.67;;;12.13;;
37485;SDS011;23341;50.296;18.960;2023-06-14T00:59:38;18.50;;;13.43;;
37485;SDS011;23341;50.296;18.960;2023-06-14T01:10:33;19.25;;;12.80;;
37485;SDS011;23341;50.296;18.960;2023-06-14T01:21:30;21.75;;;13.48;;
37485;SDS011;23341;50.296;18.960;2023-06-14T01:26:46;23.95;;;14.98;;
37485;SDS011;23341;50.296;18.960;2023-06-14T01:38:40;19.13;;;12.02;;
37485;SDS011;23341;50.296;18.960;2023-06-14T01:56:32;24.23;;;15.48;;
37485;SDS011;23341;50.296;18.960;2023-06-14T02:08:32;16.60;;;13.73;;
37485;SDS011;23341;50.296;18.960;2023-06-14T02:19:39;15.52;;;12.05;;
37485;SDS011;23341;50.296;18.960;2023-06-14T02:30:38;21.83;;;12.05;;
37485;SDS011;23341;50.296;18.960;2023-06-14T02:35:45;17.38;;;14.55;;
37485;SDS011;23341;50.296;18.960;2023-06-14T02:47:10;20.98;;;13.85;;
37485;SDS011;23341;50.296;18.960;2023-06-14T02:59:14;25.35;;;13.93;;
37485;SDS011;23341;50.296;18.960;2023-06-14T03:16:36;16.52;;;12.85;;
37485;SDS011;23341;50.296;18.960;2023-06-14T03:21:44;16.23;;;10.70;;
37485;SDS011;23341;50.296;18.960;2023-06-14T03:26:50;14.23;;;10.18;;
37485;SDS011;23341;50.296;18.960;2023-06-14T03:33:08;15.90;;;10.02;;
37485;SDS011;23341;50.296;18.960;2023-06-14T03:45:22;13.98;;;10.70;;
37485;SDS011;23341;50.296;18.960;2023-06-14T04:02:38;17.20;;;11.25;;
37485;SDS011;23341;50.296;18.960;2023-06-14T04:07:45;17.20;;;10.50;;
37485;SDS011;23341;50.296;18.960;2023-06-14T04:19:49;21.15;;;11.18;;
37485;SDS011;23341;50.296;18.960;2023-06-14T04:24:55;19.13;;;10.48;;
37485;SDS011;23341;50.296;18.960;2023-06-14T04:37:15;24.27;;;13.25;;
37485;SDS011;23341;50.296;18.960;2023-06-14T04:42:20;26.38;;;12.65;;
37485;SDS011;23341;50.296;18.960;2023-06-14T04:47:28;21.05;;;13.25;;
37485;SDS011;23341;50.296;18.960;2023-06-14T04:58:19;26.77;;;18.70;;
37485;SDS011;23341;50.296;18.960;2023-06-14T05:03:24;35.70;;;24.90;;
37485;SDS011;23341;50.296;18.960;2023-06-14T05:08:29;44.08;;;28.08;;
37485;SDS011;23341;50.296;18.960;2023-06-14T05:25:34;29.70;;;14.95;;
37485;SDS011;23341;50.296;18.960;2023-06-14T05:30:39;23.58;;;15.32;;
37485;SDS011;23341;50.296;18.960;2023-06-14T05:35:44;26.10;;;17.73;;
37485;SDS011;23341;50.296;18.960;2023-06-14T05:40:50;32.88;;;23.23;;
37485;SDS011;23341;50.296;18.960;2023-06-14T05:45:56;29.48;;;21.35;;
37485;SDS011;23341;50.296;18.960;2023-06-14T05:51:00;29.27;;;15.40;;
37485;SDS011;23341;50.296;18.960;2023-06-14T06:02:38;22.42;;;15.63;;
37485;SDS011;23341;50.296;18.960;2023-06-14T06:09:06;10.35;;;8.88;;
37485;SDS011;23341;50.296;18.960;2023-06-14T06:14:11;10.45;;;8.80;;
37485;SDS011;23341;50.296;18.960;2023-06-14T06:26:05;16.98;;;9.90;;
37485;SDS011;23341;50.296;18.960;2023-06-14T06:31:10;12.73;;;10.38;;
37485;SDS011;23341;50.296;18.960;2023-06-14T06:36:14;16.95;;;12.13;;
37485;SDS011;23341;50.296;18.960;2023-06-14T06:41:20;17.80;;;15.85;;
37485;SDS011;23341;50.296;18.960;2023-06-14T06:46:25;26.88;;;16.35;;
37485;SDS011;23341;50.296;18.960;2023-06-14T06:51:30;26.52;;;20.88;;
37485;SDS011;23341;50.296;18.960;2023-06-14T06:56:35;32.45;;;21.30;;
37485;SDS011;23341;50.296;18.960;2023-06-14T07:01:40;20.73;;;15.77;;
37485;SDS011;23341;50.296;18.960;2023-06-14T07:06:45;15.23;;;13.40;;
37485;SDS011;23341;50.296;18.960;2023-06-14T07:11:51;20.98;;;14.95;;
37485;SDS011;23341;50.296;18.960;2023-06-14T07:16:56;28.77;;;18.67;;
37485;SDS011;23341;50.296;18.960;2023-06-14T07:22:00;13.98;;;11.00;;
37485;SDS011;23341;50.296;18.960;2023-06-14T07:27:06;13.43;;;10.15;;
37485;SDS011;23341;50.296;18.960;2023-06-14T07:32:10;9.63;;;7.90;;
37485;SDS011;23341;50.296;18.960;2023-06-14T07:37:15;13.55;;;10.02;;
37485;SDS011;23341;50.296;18.960;2023-06-14T07:42:21;8.07;;;7.28;;
37485;SDS011;23341;50.296;18.960;2023-06-14T07:47:25;8.52;;;6.63;;
37485;SDS011;23341;50.296;18.960;2023-06-14T07:52:30;9.05;;;5.97;;
37485;SDS011;23341;50.296;18.960;2023-06-14T07:57:36;3.53;;;3.22;;
37485;SDS011;23341;50.296;18.960;2023-06-14T08:02:41;3.53;;;3.22;;
37485;SDS011;23341;50.296;18.960;2023-06-14T08:07:45;4.63;;;2.80;;
37485;SDS011;23341;50.296;18.960;2023-06-14T08:12:51;2.60;;;2.40;;
37485;SDS011;23341;50.296;18.960;2023-06-14T08:17:55;2.85;;;2.15;;
37485;SDS011;23341;50.296;18.960;2023-06-14T08:23:02;3.10;;;2.33;;
37485;SDS011;23341;50.296;18.960;2023-06-14T08:28:09;3.67;;;3.38;;
37485;SDS011;23341;50.296;18.960;2023-06-14T08:33:13;3.60;;;3.30;;
37485;SDS011;23341;50.296;18.960;2023-06-14T08:38:19;6.88;;;4.90;;
37485;SDS011;23341;50.296;18.960;2023-06-14T08:43:24;6.20;;;5.70;;
37485;SDS011;23341;50.296;18.960;2023-06-14T08:48:29;4.30;;;3.92;;
37485;SDS011;23341;50.296;18.960;2023-06-14T08:53:36;12.27;;;8.93;;
37485;SDS011;23341;50.296;18.960;2023-06-14T08:58:46;7.72;;;6.43;;
37485;SDS011;23341;50.296;18.960;2023-06-14T09:03:51;5.75;;;4.43;;
37485;SDS011;23341;50.296;18.960;2023-06-14T09:08:57;4.70;;;4.20;;
37485;SDS011;23341;50.296;18.960;2023-06-14T09:14:04;5.47;;;4.82;;
37485;SDS011;23341;50.296;18.960;2023-06-14T09:19:09;5.47;;;4.97;;
37485;SDS011;23341;50.296;18.960;2023-06-14T09:24:18;5.03;;;4.63;;
37485;SDS011;23341;50.296;18.960;2023-06-14T09:29:23;5.18;;;4.78;;
37485;SDS011;23341;50.296;18.960;2023-06-14T09:34:29;5.18;;;4.78;;
37485;SDS011;23341;50.296;18.960;2023-06-14T09:39:33;6.00;;;5.50;;
37485;SDS011;23341;50.296;18.960;2023-06-14T09:44:39;5.70;;;5.18;;
37485;SDS011;23341;50.296;18.960;2023-06-14T09:49:43;4.78;;;4.38;;
37485;SDS011;23341;50.296;18.960;2023-06-14T09:54:47;5.85;;;5.28;;
37485;SDS011;23341;50.296;18.960;2023-06-14T09:59:56;6.20;;;5.60;;
37485;SDS011;23341;50.296;18.960;2023-06-14T10:05:03;6.65;;;6.05;;
37485;SDS011;23341;50.296;18.960;2023-06-14T10:10:10;7.15;;;6.45;;
37485;SDS011;23341;50.296;18.960;2023-06-14T10:15:18;6.50;;;5.85;;
37485;SDS011;23341;50.296;18.960;2023-06-14T10:20:28;7.45;;;5.75;;
37485;SDS011;23341;50.296;18.960;2023-06-14T10:25:36;7.05;;;5.90;;
37485;SDS011;23341;50.296;18.960;2023-06-14T10:30:42;7.85;;;5.80;;
37485;SDS011;23341;50.296;18.960;2023-06-14T10:36:25;6.82;;;5.72;;
37485;SDS011;23341;50.296;18.960;2023-06-14T10:41:35;5.68;;;4.97;;
37485;SDS011;23341;50.296;18.960;2023-06-14T10:46:47;9.60;;;6.63;;
37485;SDS011;23341;50.296;18.960;2023-06-14T10:51:52;6.15;;;5.55;;
37485;SDS011;23341;50.296;18.960;2023-06-14T10:57:01;8.03;;;5.00;;
37485;SDS011;23341;50.296;18.960;2023-06-14T11:02:12;5.40;;;4.90;;
37485;SDS011;23341;50.296;18.960;2023-06-14T11:07:40;4.95;;;4.45;;
37485;SDS011;23341;50.296;18.960;2023-06-14T11:12:59;4.30;;;3.85;;
37485;SDS011;23341;50.296;18.960;2023-06-14T11:18:06;4.95;;;4.45;;
37485;SDS011;23341;50.296;18.960;2023-06-14T11:23:11;5.43;;;4.30;;
37485;SDS011;23341;50.296;18.960;2023-06-14T11:28:16;8.02;;;5.43;;
37485;SDS011;23341;50.296;18.960;2023-06-14T11:33:23;7.10;;;5.00;;
37485;SDS011;23341;50.296;18.960;2023-06-14T11:38:27;7.03;;;4.18;;
37485;SDS011;23341;50.296;18.960;2023-06-14T11:43:32;8.27;;;4.80;;
37485;SDS011;23341;50.296;18.960;2023-06-14T11:48:40;6.25;;;3.90;;
37485;SDS011;23341;50.296;18.960;2023-06-14T11:53:45;5.40;;;3.50;;
37485;SDS011;23341;50.296;18.960;2023-06-14T11:58:50;5.72;;;3.78;;
37485;SDS011;23341;50.296;18.960;2023-06-14T12:04:00;9.73;;;4.63;;
37485;SDS011;23341;50.296;18.960;2023-06-14T12:09:06;8.57;;;4.63;;
37485;SDS011;23341;50.296;18.960;2023-06-14T12:14:16;7.75;;;4.82;;
37485;SDS011;23341;50.296;18.960;2023-06-14T12:19:25;7.50;;;4.78;;
37485;SDS011;23341;50.296;18.960;2023-06-14T12:24:30;8.43;;;5.20;;
37485;SDS011;23341;50.296;18.960;2023-06-14T12:29:36;5.57;;;3.90;;
37485;SDS011;23341;50.296;18.960;2023-06-14T12:34:41;4.22;;;3.20;;
37485;SDS011;23341;50.296;18.960;2023-06-14T12:39:46;4.25;;;2.92;;
37485;SDS011;23341;50.296;18.960;2023-06-14T12:44:50;4.38;;;2.85;;
37485;SDS011;23341;50.296;18.960;2023-06-14T12:49:56;5.65;;;4.80;;
37485;SDS011;23341;50.296;18.960;2023-06-14T12:55:00;3.95;;;3.13;;
37485;SDS011;23341;50.296;18.960;2023-06-14T13:00:05;5.30;;;2.70;;
37485;SDS011;23341;50.296;18.960;2023-06-14T13:05:13;3.72;;;2.45;;
37485;SDS011;23341;50.296;18.960;2023-06-14T13:10:21;4.07;;;2.30;;
37485;SDS011;23341;50.296;18.960;2023-06-14T13:15:25;4.28;;;2.72;;
37485;SDS011;23341;50.296;18.960;2023-06-14T13:20:31;9.63;;;3.38;;
37485;SDS011;23341;50.296;18.960;2023-06-14T13:25:36;4.07;;;2.92;;
37485;SDS011;23341;50.296;18.960;2023-06-14T13:30:41;9.02;;;4.35;;
37485;SDS011;23341;50.296;18.960;2023-06-14T13:35:47;6.78;;;4.13;;
37485;SDS011;23341;50.296;18.960;2023-06-14T13:40:52;3.50;;;3.22;;
37485;SDS011;23341;50.296;18.960;2023-06-14T13:45:58;5.32;;;3.08;;
37485;SDS011;23341;50.296;18.960;2023-06-14T13:51:04;2.83;;;2.60;;
37485;SDS011;23341;50.296;18.960;2023-06-14T13:56:08;3.05;;;2.80;;
37485;SDS011;23341;50.296;18.960;2023-06-14T14:01:12;3.22;;;3.03;;
37485;SDS011;23341;50.296;18.960;2023-06-14T14:06:18;3.03;;;2.75;;
37485;SDS011;23341;50.296;18.960;2023-06-14T14:11:23;4.60;;;2.78;;
37485;SDS011;23341;50.296;18.960;2023-06-14T14:16:27;4.60;;;3.10;;
37485;SDS011;23341;50.296;18.960;2023-06-14T14:21:34;4.80;;;3.80;;
37485;SDS011;23341;50.296;18.960;2023-06-14T14:26:39;4.85;;;3.50;;
37485;SDS011;23341;50.296;18.960;2023-06-14T14:31:44;5.85;;;3.30;;
37485;SDS011;23341;50.296;18.960;2023-06-14T14:36:56;3.25;;;2.95;;
37485;SDS011;23341;50.296;18.960;2023-06-14T14:42:00;3.08;;;2.80;;
37485;SDS011;23341;50.296;18.960;2023-06-14T14:47:05;2.13;;;1.92;;
37485;SDS011;23341;50.296;18.960;2023-06-14T14:52:11;3.70;;;2.63;;
37485;SDS011;23341;50.296;18.960;2023-06-14T14:57:25;2.60;;;2.40;;
37485;SDS011;23341;50.296;18.960;2023-06-14T15:02:30;2.97;;;2.67;;
37485;SDS011;23341;50.296;18.960;2023-06-14T15:07:37;5.15;;;2.47;;
37485;SDS011;23341;50.296;18.960;2023-06-14T15:12:42;3.88;;;3.42;;
37485;SDS011;23341;50.296;18.960;2023-06-14T15:17:46;3.75;;;3.00;;
37485;SDS011;23341;50.296;18.960;2023-06-14T15:22:52;4.03;;;3.33;;
37485;SDS011;23341;50.296;18.960;2023-06-14T15:28:01;3.20;;;2.90;;
37485;SDS011;23341;50.296;18.960;2023-06-14T15:33:08;6.18;;;3.22;;
37485;SDS011;23341;50.296;18.960;2023-06-14T15:38:14;3.53;;;3.22;;
37485;SDS011;23341;50.296;18.960;2023-06-14T15:43:19;7.50;;;4.05;;
37485;SDS011;23341;50.296;18.960;2023-06-14T15:48:25;3.80;;;3.45;;
37485;SDS011;23341;50.296;18.960;2023-06-14T15:53:31;3.03;;;2.83;;
37485;SDS011;23341;50.296;18.960;2023-06-14T15:58:36;2.78;;;2.58;;
37485;SDS011;23341;50.296;18.960;2023-06-14T16:03:41;4.65;;;2.58;;
37485;SDS011;23341;50.296;18.960;2023-06-14T16:08:47;3.08;;;2.53;;
37485;SDS011;23341;50.296;18.960;2023-06-14T16:13:51;2.70;;;2.50;;
37485;SDS011;23341;50.296;18.960;2023-06-14T16:18:58;3.35;;;2.83;;
37485;SDS011;23341;50.296;18.960;2023-06-14T16:24:04;3.10;;;2.90;;
37485;SDS011;23341;50.296;18.960;2023-06-14T16:29:11;4.32;;;2.85;;
37485;SDS011;23341;50.296;18.960;2023-06-14T16:34:16;3.53;;;3.22;;
37485;SDS011;23341;50.296;18.960;2023-06-14T16:39:22;3.97;;;2.95;;
37485;SDS011;23341;50.296;18.960;2023-06-14T16:44:26;3.70;;;3.05;;
37485;SDS011;23341;50.296;18.960;2023-06-14T16:49:31;6.75;;;3.80;;
37485;SDS011;23341;50.296;18.960;2023-06-14T16:54:37;3.95;;;3.65;;
37485;SDS011;23341;50.296;18.960;2023-06-14T16:59:41;6.45;;;3.50;;
37485;SDS011;23341;50.296;18.960;2023-06-14T17:04:45;6.53;;;4.72;;
37485;SDS011;23341;50.296;18.960;2023-06-14T17:09:51;9.38;;;4.25;;
37485;SDS011;23341;50.296;18.960;2023-06-14T17:14:56;6.60;;;4.70;;
37485;SDS011;23341;50.296;18.960;2023-06-14T17:20:00;7.07;;;5.38;;
37485;SDS011;23341;50.296;18.960;2023-06-14T17:25:07;7.20;;;4.82;;
37485;SDS011;23341;50.296;18.960;2023-06-14T17:30:13;9.90;;;5.80;;
37485;SDS011;23341;50.296;18.960;2023-06-14T17:35:18;4.20;;;3.80;;
37485;SDS011;23341;50.296;18.960;2023-06-14T17:40:24;8.93;;;4.95;;
37485;SDS011;23341;50.296;18.960;2023-06-14T17:45:42;5.68;;;4.95;;
37485;SDS011;23341;50.296;18.960;2023-06-14T17:50:47;5.88;;;4.10;;
37485;SDS011;23341;50.296;18.960;2023-06-14T17:55:53;10.52;;;4.90;;
37485;SDS011;23341;50.296;18.960;2023-06-14T18:00:57;9.52;;;4.50;;
37485;SDS011;23341;50.296;18.960;2023-06-14T18:06:02;8.52;;;4.43;;
37485;SDS011;23341;50.296;18.960;2023-06-14T18:11:09;5.32;;;3.97;;
37485;SDS011;23341;50.296;18.960;2023-06-14T18:16:13;4.40;;;4.00;;
37485;SDS011;23341;50.296;18.960;2023-06-14T18:21:22;7.38;;;5.25;;
37485;SDS011;23341;50.296;18.960;2023-06-14T18:26:27;5.20;;;4.65;;
37485;SDS011;23341;50.296;18.960;2023-06-14T18:31:32;5.95;;;4.90;;
37485;SDS011;23341;50.296;18.960;2023-06-14T18:36:37;8.52;;;4.93;;
37485;SDS011;23341;50.296;18.960;2023-06-14T18:41:44;7.65;;;5.65;;
37485;SDS011;23341;50.296;18.960;2023-06-14T18:46:48;7.70;;;5.22;;
37485;SDS011;23341;50.296;18.960;2023-06-14T18:51:53;8.20;;;6.75;;
37485;SDS011;23341;50.296;18.960;2023-06-14T18:56:59;9.70;;;6.32;;
37485;SDS011;23341;50.296;18.960;2023-06-14T19:02:04;9.07;;;6.45;;
37485;SDS011;23341;50.296;18.960;2023-06-14T19:07:09;10.23;;;7.35;;
37485;SDS011;23341;50.296;18.960;2023-06-14T19:12:15;14.00;;;8.05;;
37485;SDS011;23341;50.296;18.960;2023-06-14T19:17:19;8.32;;;7.38;;
37485;SDS011;23341;50.296;18.960;2023-06-14T19:22:23;9.95;;;7.82;;
37485;SDS011;23341;50.296;18.960;2023-06-14T19:27:29;17.23;;;9.35;;
37485;SDS011;23341;50.296;18.960;2023-06-14T19:32:37;13.45;;;10.07;;
37485;SDS011;23341;50.296;18.960;2023-06-14T19:37:42;16.30;;;8.32;;
37485;SDS011;23341;50.296;18.960;2023-06-14T19:42:48;12.73;;;8.20;;
37485;SDS011;23341;50.296;18.960;2023-06-14T19:47:52;9.68;;;8.65;;
37485;SDS011;23341;50.296;18.960;2023-06-14T19:53:08;12.35;;;9.35;;
37485;SDS011;23341;50.296;18.960;2023-06-14T19:58:14;11.70;;;7.90;;
37485;SDS011;23341;50.296;18.960;2023-06-14T20:03:18;9.77;;;7.72;;
37485;SDS011;23341;50.296;18.960;2023-06-14T20:08:23;10.07;;;9.15;;
37485;SDS011;23341;50.296;18.960;2023-06-14T20:13:28;16.23;;;9.38;;
37485;SDS011;23341;50.296;18.960;2023-06-14T20:18:33;10.65;;;8.60;;
37485;SDS011;23341;50.296;18.960;2023-06-14T20:23:37;13.13;;;9.77;;
37485;SDS011;23341;50.296;18.960;2023-06-14T20:28:43;11.00;;;9.73;;
37485;SDS011;23341;50.296;18.960;2023-06-14T20:33:47;13.15;;;10.98;;
37485;SDS011;23341;50.296;18.960;2023-06-14T20:38:52;13.13;;;11.75;;
37485;SDS011;23341;50.296;18.960;2023-06-14T20:43:57;14.75;;;12.40;;
37485;SDS011;23341;50.296;18.960;2023-06-14T20:49:03;18.63;;;13.07;;
37485;SDS011;23341;50.296;18.960;2023-06-14T20:54:10;15.02;;;12.55;;
37485;SDS011;23341;50.296;18.960;2023-06-14T20:59:16;13.85;;;11.95;;
37485;SDS011;23341;50.296;18.960;2023-06-14T21:04:20;17.63;;;12.35;;
37485;SDS011;23341;50.296;18.960;2023-06-14T21:09:25;15.15;;;12.60;;
37485;SDS011;23341;50.296;18.960;2023-06-14T21:14:31;21.88;;;12.63;;
37485;SDS011;23341;50.296;18.960;2023-06-14T21:19:35;19.83;;;13.52;;
37485;SDS011;23341;50.296;18.960;2023-06-14T21:24:40;18.55;;;13.27;;
37485;SDS011;23341;50.296;18.960;2023-06-14T21:29:46;20.63;;;13.70;;
37485;SDS011;23341;50.296;18.960;2023-06-14T21:34:52;18.42;;;13.50;;
37485;SDS011;23341;50.296;18.960;2023-06-14T21:39:56;16.55;;;14.27;;
37485;SDS011;23341;50.296;18.960;2023-06-14T21:45:06;25.77;;;14.93;;
37485;SDS011;23341;50.296;18.960;2023-06-14T21:50:13;15.27;;;13.68;;
37485;SDS011;23341;50.296;18.960;2023-06-14T21:55:18;16.73;;;13.80;;
37485;SDS011;23341;50.296;18.960;2023-06-14T22:00:27;21.02;;;15.13;;
37485;SDS011;23341;50.296;18.960;2023-06-14T22:05:32;16.23;;;13.38;;
37485;SDS011;23341;50.296;18.960;2023-06-14T22:10:37;18.58;;;13.85;;
37485;SDS011;23341;50.296;18.960;2023-06-14T22:15:43;19.23;;;14.18;;
37485;SDS011;23341;50.296;18.960;2023-06-14T22:20:48;20.98;;;14.60;;
37485;SDS011;23341;50.296;18.960;2023-06-14T22:25:53;20.60;;;14.38;;
37485;SDS011;23341;50.296;18.960;2023-06-14T22:30:58;17.83;;;13.90;;
37485;SDS011;23341;50.296;18.960;2023-06-14T22:36:03;18.42;;;13.60;;
37485;SDS011;23341;50.296;18.960;2023-06-14T22:41:08;18.17;;;14.18;;
37485;SDS011;23341;50.296;18.960;2023-06-14T22:46:17;21.02;;;14.98;;
37485;SDS011;23341;50.296;18.960;2023-06-14T22:51:25;17.60;;;13.20;;
37485;SDS011;23341;50.296;18.960;2023-06-14T22:56:30;16.05;;;14.00;;
37485;SDS011;23341;50.296;18.960;2023-06-14T23:01:35;16.08;;;13.45;;
37485;SDS011;23341;50.296;18.960;2023-06-14T23:06:40;18.58;;;14.25;;
37485;SDS011;23341;50.296;18.960;2023-06-14T23:11:45;20.33;;;14.02;;
37485;SDS011;23341;50.296;18.960;2023-06-14T23:16:50;21.95;;;15.50;;
37485;SDS011;23341;50.296;18.960;2023-06-14T23:21:56;21.60;;;15.35;;
37485;SDS011;23341;50.296;18.960;2023-06-14T23:27:01;20.30;;;14.15;;
37485;SDS011;23341;50.296;18.960;2023-06-14T23:32:08;17.40;;;14.18;;
37485;SDS011;23341;50.296;18.960;2023-06-14T23:37:13;15.02;;;13.30;;
37485;SDS011;23341;50.296;18.960;2023-06-14T23:42:17;15.20;;;12.98;;
37485;SDS011;23341;50.296;18.960;2023-06-14T23:47:24;18.52;;;13.13;;
37485;SDS011;23341;50.296;18.960;2023-06-14T23:52:29;18.58;;;13.95;;
37485;SDS011;23341;50.296;18.960;2023-06-14T23:57:34;16.85;;;15.10;;
